Time;durP1;ratioP1;P1;durP2;ratioP2;P2;SDS_P1;SDS_P2;PMS_P1;PMS_P2;Temp;Humidity;BMP_temperature;BMP_pressure;BME280_temperature;BME280_humidity;BME280_pressure;Samples;Min_cycle;Max_cycle;Signal;HPM_P1;HPM_P2
2020/12/11 00:00:00;;;;;;;19.73;14.30;;;2.70;99.90;;;;;;5062488;28;20185;-76
2020/12/11 00:02:25;;;;;;;18.03;13.27;;;2.70;99.90;;;;;;5052399;28;20194;-76
2020/12/11 00:04:51;;;;;;;23.77;14.13;;;2.70;99.90;;;;;;5050981;28;20190;-76
2020/12/11 00:07:16;;;;;;;23.00;13.17;;;2.70;99.90;;;;;;5051498;28;20226;-76
2020/12/11 00:09:42;;;;;;;18.57;13.70;;;2.70;99.90;;;;;;5052172;28;20174;-76
2020/12/11 00:12:08;;;;;;;23.87;14.63;;;2.70;99.90;;;;;;5051531;28;20222;-76
2020/12/11 00:14:33;;;;;;;22.57;12.53;;;2.60;99.90;;;;;;5051869;28;20604;-76
2020/12/11 00:16:59;;;;;;;18.10;12.20;;;2.60;99.90;;;;;;5055046;28;20179;-76
2020/12/11 00:19:24;;;;;;;18.10;12.70;;;2.60;99.90;;;;;;5055553;28;20654;-76
2020/12/11 00:21:50;;;;;;;17.47;12.67;;;2.60;99.90;;;;;;5055737;28;20182;-75
2020/12/11 00:24:16;;;;;;;20.10;13.77;;;2.60;99.90;;;;;;5055608;28;20580;-76
2020/12/11 00:26:41;;;;;;;17.70;12.57;;;2.60;99.90;;;;;;5055335;28;20222;-76
2020/12/11 00:29:07;;;;;;;17.07;12.20;;;2.60;99.90;;;;;;5055018;28;20178;-76
2020/12/11 00:31:33;;;;;;;17.23;12.80;;;2.50;99.90;;;;;;5055912;28;20178;-76
2020/12/11 00:33:59;;;;;;;18.07;11.40;;;2.60;99.90;;;;;;5055332;28;20495;-76
2020/12/11 00:36:25;;;;;;;20.70;13.15;;;2.50;99.90;;;;;;5055219;28;20193;-76
2020/12/11 00:38:51;;;;;;;17.77;13.00;;;2.50;99.90;;;;;;5055433;28;20182;-76
2020/12/11 00:41:17;;;;;;;15.60;12.07;;;2.50;99.90;;;;;;5055000;28;20435;-76
2020/12/11 00:43:42;;;;;;;15.40;10.77;;;2.50;99.90;;;;;;5055911;28;20568;-76
2020/12/11 00:46:08;;;;;;;17.67;12.90;;;2.50;99.90;;;;;;5072637;28;20228;-76
2020/12/11 00:48:37;;;;;;;19.30;12.73;;;2.50;99.90;;;;;;5068494;28;20230;-76
2020/12/11 00:51:02;;;;;;;19.27;10.80;;;2.50;99.90;;;;;;5055155;28;20189;-76
2020/12/11 00:53:28;;;;;;;11.80;9.97;;;2.50;99.90;;;;;;5055122;28;20213;-76
2020/12/11 00:55:54;;;;;;;14.07;10.50;;;2.40;99.90;;;;;;5054806;28;20291;-76
2020/12/11 00:58:19;;;;;;;21.20;12.83;;;2.40;99.90;;;;;;5053793;28;20182;-76
2020/12/11 01:00:45;;;;;;;14.63;10.07;;;2.40;99.90;;;;;;5054436;28;20590;-76
2020/12/11 01:03:11;;;;;;;16.83;12.07;;;2.40;99.90;;;;;;5054796;28;20174;-76
2020/12/11 01:05:37;;;;;;;17.40;11.80;;;2.40;99.90;;;;;;5054546;28;20277;-76
2020/12/11 01:08:04;;;;;;;12.83;9.80;;;2.40;99.90;;;;;;5054511;28;20242;-76
2020/12/11 01:10:29;;;;;;;17.50;12.07;;;2.30;99.90;;;;;;5055012;28;20420;-76
2020/12/11 01:12:55;;;;;;;20.47;11.80;;;2.30;99.90;;;;;;5054441;28;20252;-76
2020/12/11 01:15:21;;;;;;;17.47;11.40;;;2.20;99.90;;;;;;5055144;28;20210;-76
2020/12/11 01:17:46;;;;;;;14.37;11.30;;;2.20;99.90;;;;;;5054502;28;20186;-76
2020/12/11 01:20:12;;;;;;;17.47;11.50;;;2.20;99.90;;;;;;5054441;28;20956;-76
2020/12/11 01:22:37;;;;;;;20.30;12.10;;;2.20;99.90;;;;;;5053257;28;20229;-76
2020/12/11 01:25:03;;;;;;;17.73;11.80;;;2.10;99.90;;;;;;5054543;28;20194;-76
2020/12/11 01:27:29;;;;;;;17.63;11.40;;;2.10;99.90;;;;;;5054038;28;20764;-76
2020/12/11 01:29:54;;;;;;;16.07;11.07;;;2.10;99.90;;;;;;5053045;28;20182;-76
2020/12/11 01:32:20;;;;;;;19.33;13.50;;;2.10;99.90;;;;;;5054030;28;20192;-76
2020/12/11 01:34:45;;;;;;;15.47;11.80;;;2.00;99.90;;;;;;5052961;28;20183;-76
2020/12/11 01:37:11;;;;;;;13.67;10.77;;;1.90;99.90;;;;;;5053983;28;20186;-76
2020/12/11 01:39:36;;;;;;;14.60;11.87;;;1.90;99.90;;;;;;5054578;28;20186;-76
2020/12/11 01:42:07;;;;;;;19.67;13.83;;;1.90;99.90;;;;;;5054054;28;20237;-76
2020/12/11 01:44:32;;;;;;;21.55;11.77;;;1.90;99.90;;;;;;5054040;28;20175;-76
2020/12/11 01:46:59;;;;;;;20.67;13.27;;;1.90;99.90;;;;;;5053951;28;20561;-76
2020/12/11 01:49:25;;;;;;;16.75;11.25;;;1.90;99.90;;;;;;5053650;28;20269;-76
2020/12/11 01:51:51;;;;;;;17.85;12.43;;;1.90;99.90;;;;;;5054306;28;20190;-76
2020/12/11 01:54:17;;;;;;;18.07;11.70;;;1.90;99.90;;;;;;5053824;28;20540;-76
2020/12/11 01:57:00;;;;;;;15.63;10.70;;;1.90;99.90;;;;;;5054125;28;20179;-75
2020/12/11 01:59:40;;;;;;;17.80;10.90;;;1.90;99.90;;;;;;5053259;28;20551;-76
2020/12/11 02:02:07;;;;;;;16.35;10.75;;;2.00;99.90;;;;;;5053356;28;20183;-76
2020/12/11 02:04:34;;;;;;;22.58;12.52;;;1.90;99.90;;;;;;5053684;28;20603;-76
2020/12/11 02:07:00;;;;;;;22.52;11.93;;;1.90;99.90;;;;;;5053545;28;20674;-76
2020/12/11 02:09:26;;;;;;;19.17;12.63;;;1.90;99.90;;;;;;5053935;28;20183;-76
2020/12/11 02:11:53;;;;;;;16.95;10.55;;;1.80;99.90;;;;;;5053943;28;20527;-75
2020/12/11 02:14:18;;;;;;;15.68;11.18;;;1.80;99.90;;;;;;5053348;28;20197;-75
2020/12/11 02:16:44;;;;;;;16.50;11.90;;;1.70;99.90;;;;;;5053282;28;20646;-76
2020/12/11 02:19:11;;;;;;;15.90;10.80;;;1.60;99.90;;;;;;5053000;28;20179;-76
2020/12/11 02:21:36;;;;;;;20.52;11.93;;;1.50;99.90;;;;;;5053845;28;20429;-76
2020/12/11 02:24:02;;;;;;;17.47;12.07;;;1.50;99.90;;;;;;5053245;28;20182;-76
2020/12/11 02:26:27;;;;;;;18.93;11.47;;;1.40;99.90;;;;;;5053223;28;20643;-76
2020/12/11 02:28:53;;;;;;;17.33;11.47;;;1.30;99.90;;;;;;5053008;28;20210;-76
2020/12/11 02:31:18;;;;;;;15.80;11.10;;;1.20;99.90;;;;;;5053016;28;20545;-75
2020/12/11 02:33:44;;;;;;;18.47;11.80;;;1.10;99.90;;;;;;5052807;28;20187;-76
2020/12/11 02:36:09;;;;;;;15.73;10.80;;;1.00;99.90;;;;;;5051722;28;20281;-76
2020/12/11 02:38:35;;;;;;;16.53;10.60;;;0.90;99.90;;;;;;5052603;28;20191;-75
2020/12/11 02:41:02;;;;;;;14.10;10.70;;;0.90;99.90;;;;;;5052948;28;20549;-75
2020/12/11 02:43:28;;;;;;;16.58;11.25;;;0.90;99.90;;;;;;5053388;28;20171;-76
2020/12/11 02:45:55;;;;;;;18.23;12.40;;;0.80;99.90;;;;;;5063068;28;20198;-76
2020/12/11 02:48:21;;;;;;;15.40;10.07;;;0.80;99.90;;;;;;5052455;28;20241;-76
2020/12/11 02:50:47;;;;;;;20.27;11.37;;;0.80;99.90;;;;;;5052930;28;20257;-76
2020/12/11 02:53:12;;;;;;;16.47;10.13;;;0.80;99.90;;;;;;5052671;28;20224;-76
2020/12/11 02:55:38;;;;;;;18.20;11.30;;;0.80;99.90;;;;;;5052634;28;20526;-75
2020/12/11 02:58:04;;;;;;;16.40;11.33;;;0.80;99.90;;;;;;5054751;28;20189;-76
2020/12/11 03:00:30;;;;;;;17.00;11.20;;;0.80;99.90;;;;;;5056391;28;20183;-76
2020/12/11 03:02:55;;;;;;;18.30;11.48;;;0.90;99.90;;;;;;5053867;28;20224;-76
2020/12/11 03:05:21;;;;;;;14.83;11.00;;;0.90;99.90;;;;;;5052477;28;20182;-76
2020/12/11 03:07:46;;;;;;;17.30;10.97;;;0.90;99.90;;;;;;5052330;28;20724;-76
2020/12/11 03:10:12;;;;;;;19.40;11.67;;;0.90;99.90;;;;;;5052589;28;20280;-76
2020/12/11 03:12:37;;;;;;;18.53;11.20;;;0.90;99.90;;;;;;5049479;28;20209;-76
2020/12/11 03:15:04;;;;;;;19.77;13.07;;;0.90;99.90;;;;;;5058658;28;20657;-76
2020/12/11 03:17:29;;;;;;;17.58;10.15;;;0.90;99.90;;;;;;5051005;28;20680;-76
2020/12/11 03:19:55;;;;;;;16.73;11.80;;;0.90;99.90;;;;;;5052272;28;20205;-77
2020/12/11 03:22:20;;;;;;;20.63;11.43;;;0.80;99.90;;;;;;5052498;28;20263;-75
2020/12/11 03:24:45;;;;;;;19.73;12.37;;;0.80;99.90;;;;;;5052140;28;20265;-76
2020/12/11 03:27:11;;;;;;;17.27;11.50;;;0.70;99.90;;;;;;5050863;28;20268;-76
2020/12/11 03:29:37;;;;;;;22.10;13.50;;;0.70;99.90;;;;;;5052338;28;20182;-76
2020/12/11 03:32:03;;;;;;;16.60;12.40;;;0.70;99.90;;;;;;5051939;28;20978;-76
2020/12/11 03:34:28;;;;;;;17.15;12.10;;;0.70;99.90;;;;;;5052282;28;20278;-76
2020/12/11 03:36:54;;;;;;;16.83;10.37;;;0.60;99.90;;;;;;5052343;28;20189;-76
2020/12/11 03:39:19;;;;;;;21.43;13.93;;;0.60;99.90;;;;;;5052428;28;20669;-75
2020/12/11 03:41:52;;;;;;;20.17;10.97;;;0.60;99.90;;;;;;5052541;28;20537;-76
2020/12/11 03:44:18;;;;;;;18.92;11.00;;;0.60;99.90;;;;;;5052104;28;20216;-76
2020/12/11 03:46:43;;;;;;;19.83;12.47;;;0.50;99.90;;;;;;5067128;28;20301;-76
2020/12/11 03:49:09;;;;;;;21.47;12.67;;;0.50;99.90;;;;;;5052374;28;20281;-75
2020/12/11 03:51:35;;;;;;;19.33;13.20;;;0.50;99.90;;;;;;5056639;28;20775;-76
2020/12/11 03:54:00;;;;;;;19.67;12.77;;;0.50;99.90;;;;;;5055965;28;20270;-76
2020/12/11 03:56:26;;;;;;;23.73;11.90;;;0.40;99.90;;;;;;5056248;28;20646;-76
2020/12/11 03:58:51;;;;;;;17.27;11.03;;;0.40;99.90;;;;;;5055902;28;20279;-76
2020/12/11 04:01:17;;;;;;;21.90;13.70;;;0.40;99.90;;;;;;5056111;28;20186;-76
2020/12/11 04:03:43;;;;;;;18.80;11.63;;;0.40;99.90;;;;;;5056119;28;20202;-76
2020/12/11 04:06:10;;;;;;;23.57;11.23;;;0.40;99.90;;;;;;5055880;28;20197;-75
2020/12/11 04:08:37;;;;;;;17.13;11.00;;;0.40;99.90;;;;;;5045033;28;20213;-75
2020/12/11 04:11:08;;;;;;;19.40;11.88;;;0.40;99.90;;;;;;5055464;28;20189;-75
2020/12/11 04:13:34;;;;;;;21.98;12.05;;;0.40;99.90;;;;;;5055030;28;20190;-76
2020/12/11 04:16:00;;;;;;;17.42;12.10;;;0.40;99.90;;;;;;5055767;28;20183;-76
2020/12/11 04:18:26;;;;;;;19.38;10.25;;;0.30;99.90;;;;;;5055729;28;20213;-75
2020/12/11 04:20:52;;;;;;;19.80;11.60;;;0.30;99.90;;;;;;5055697;28;20658;-76
2020/12/11 04:23:18;;;;;;;23.33;13.60;;;0.30;99.90;;;;;;5055617;28;20528;-76
2020/12/11 04:25:44;;;;;;;19.43;12.47;;;0.30;99.90;;;;;;5055885;28;20261;-76
2020/12/11 04:28:09;;;;;;;21.70;11.70;;;0.30;99.90;;;;;;5055215;28;20689;-76
2020/12/11 04:30:35;;;;;;;20.53;11.50;;;0.30;99.90;;;;;;5055502;28;20557;-76
2020/12/11 04:33:00;;;;;;;18.83;12.37;;;0.30;99.90;;;;;;5055423;28;20591;-76
2020/12/11 04:35:26;;;;;;;19.90;12.40;;;0.30;99.90;;;;;;5055501;28;20187;-75
2020/12/11 04:37:51;;;;;;;23.93;12.87;;;0.20;99.90;;;;;;5055329;28;20629;-76
2020/12/11 04:40:18;;;;;;;18.20;11.13;;;0.20;99.90;;;;;;5055600;28;20224;-76
2020/12/11 04:42:45;;;;;;;20.80;14.48;;;0.20;99.90;;;;;;5055656;28;20247;-76
2020/12/11 04:45:11;;;;;;;20.98;12.45;;;0.10;99.90;;;;;;5060927;28;20182;-76
2020/12/11 04:47:44;;;;;;;19.52;12.10;;;0.10;99.90;;;;;;5059636;28;20630;-76
2020/12/11 04:50:11;;;;;;;18.75;11.32;;;0.10;99.90;;;;;;5054028;28;20197;-76
2020/12/11 04:52:41;;;;;;;20.50;12.15;;;0.00;99.90;;;;;;5053937;28;20190;-76
2020/12/11 04:55:12;;;;;;;20.00;10.57;;;-0.10;99.90;;;;;;5054153;28;20570;-76
2020/12/11 04:57:49;;;;;;;20.60;12.98;;;-0.10;99.90;;;;;;5054694;28;20183;-76
2020/12/11 05:00:17;;;;;;;17.23;10.10;;;-0.20;99.90;;;;;;5055178;28;20178;-76
2020/12/11 05:02:44;;;;;;;21.23;12.95;;;-0.20;99.90;;;;;;5054123;28;20214;-76
2020/12/11 05:05:11;;;;;;;18.90;11.07;;;-0.30;99.90;;;;;;5054923;28;20182;-75
2020/12/11 05:07:36;;;;;;;18.38;9.98;;;-0.30;99.90;;;;;;5052259;28;20210;-75
2020/12/11 05:10:07;;;;;;;14.57;10.47;;;-0.40;99.90;;;;;;5055116;28;20239;-76
2020/12/11 05:12:33;;;;;;;16.58;10.57;;;-0.40;99.90;;;;;;5055067;28;20429;-77
2020/12/11 05:15:08;;;;;;;17.23;10.50;;;-0.50;99.90;;;;;;5054937;28;20872;-76
2020/12/11 05:17:42;;;;;;;18.30;12.18;;;-0.50;99.90;;;;;;5056373;28;20625;-76
2020/12/11 05:20:09;;;;;;;28.02;15.75;;;-0.60;99.90;;;;;;5054871;28;20265;-76
2020/12/11 05:22:36;;;;;;;31.05;17.65;;;-0.60;99.90;;;;;;5054075;28;20265;-76
2020/12/11 05:25:05;;;;;;;23.17;12.50;;;-0.60;99.90;;;;;;5054554;28;20189;-76
2020/12/11 05:27:33;;;;;;;23.38;14.07;;;-0.70;99.90;;;;;;5054455;28;20239;-76
2020/12/11 05:30:00;;;;;;;19.90;11.63;;;-0.70;99.90;;;;;;5054356;28;20178;-76
2020/12/11 05:32:46;;;;;;;17.80;10.40;;;-0.70;99.90;;;;;;5054460;28;20240;-76
2020/12/11 05:35:17;;;;;;;18.77;11.15;;;-0.70;99.90;;;;;;5054106;28;20174;-76
2020/12/11 05:37:52;;;;;;;20.30;12.63;;;-0.70;99.90;;;;;;5060370;28;20273;-76
2020/12/11 05:40:25;;;;;;;23.80;13.95;;;-0.70;99.90;;;;;;5063684;28;20178;-76
2020/12/11 05:43:13;;;;;;;25.40;11.52;;;-0.70;99.90;;;;;;5054590;28;20217;-76
2020/12/11 05:45:54;;;;;;;21.83;11.35;;;-0.70;99.90;;;;;;5050906;28;20195;-76
2020/12/11 05:48:37;;;;;;;33.55;14.65;;;-0.70;99.90;;;;;;5057053;28;20223;-76
2020/12/11 05:51:12;;;;;;;26.17;15.77;;;-0.70;99.90;;;;;;5034926;28;20184;-76
2020/12/11 05:53:38;;;;;;;30.48;13.40;;;-0.70;99.90;;;;;;5050997;28;20269;-76
2020/12/11 05:56:05;;;;;;;24.17;11.93;;;-0.70;99.90;;;;;;5054044;28;20262;-76
2020/12/11 05:58:33;;;;;;;24.63;12.50;;;-0.60;99.90;;;;;;5053939;28;20191;-76
2020/12/11 06:00:59;;;;;;;25.30;13.07;;;-0.60;99.90;;;;;;5053999;28;20182;-76
2020/12/11 06:03:25;;;;;;;20.38;12.48;;;-0.70;99.90;;;;;;5065889;28;20178;-82
2020/12/11 06:05:55;;;;;;;25.10;14.10;;;-0.60;99.90;;;;;;5055948;28;20194;-76
2020/12/11 06:08:24;;;;;;;23.25;12.60;;;-0.60;99.90;;;;;;5060313;28;20274;-79
2020/12/11 06:10:50;;;;;;;21.83;13.07;;;-0.60;99.90;;;;;;5057431;28;20533;-77
2020/12/11 06:13:29;;;;;;;65.53;36.20;;;-0.70;99.90;;;;;;5052776;28;20194;-77
2020/12/11 06:15:56;;;;;;;39.13;23.83;;;-0.60;99.90;;;;;;5052381;28;20450;-75
2020/12/11 06:18:26;;;;;;;23.13;14.15;;;-0.60;99.90;;;;;;5053792;28;20186;-75
2020/12/11 06:20:55;;;;;;;23.13;13.65;;;-0.60;99.90;;;;;;5053143;28;20181;-75
2020/12/11 06:23:24;;;;;;;24.75;12.63;;;-0.60;99.90;;;;;;5053369;28;20603;-76
2020/12/11 06:25:52;;;;;;;22.00;11.55;;;-0.60;99.90;;;;;;5053180;28;20183;-75
2020/12/11 06:28:36;;;;;;;18.23;11.85;;;-0.60;99.90;;;;;;5053327;28;20225;-76
2020/12/11 06:31:07;;;;;;;20.88;10.98;;;-0.50;99.90;;;;;;5052946;28;20186;-76
2020/12/11 06:33:35;;;;;;;17.30;10.85;;;-0.50;99.90;;;;;;5053294;28;20654;-75
2020/12/11 06:36:02;;;;;;;16.33;10.25;;;-0.40;99.90;;;;;;5052971;28;20269;-76
2020/12/11 06:38:49;;;;;;;18.58;10.85;;;-0.50;99.90;;;;;;5053085;28;20588;-75
2020/12/11 06:41:35;;;;;;;20.25;12.63;;;-0.50;99.90;;;;;;5053048;28;20580;-76
2020/12/11 06:44:09;;;;;;;21.60;13.75;;;-0.40;99.90;;;;;;5053323;28;20210;-76
2020/12/11 06:46:34;;;;;;;20.02;11.95;;;-0.40;99.90;;;;;;5056716;28;20208;-77
2020/12/11 06:49:14;;;;;;;21.03;12.17;;;-0.40;99.90;;;;;;5054246;28;20187;-74
2020/12/11 06:51:46;;;;;;;23.70;14.15;;;-0.30;99.90;;;;;;5052450;28;20174;-74
2020/12/11 06:54:38;;;;;;;22.45;12.90;;;-0.30;99.90;;;;;;5052880;28;20188;-74
2020/12/11 06:57:03;;;;;;;23.67;12.95;;;-0.30;99.90;;;;;;5050195;28;20186;-75
2020/12/11 06:59:37;;;;;;;20.57;11.63;;;-0.30;99.90;;;;;;5053130;28;20217;-75
2020/12/11 07:02:03;;;;;;;16.52;11.95;;;-0.20;99.90;;;;;;5052573;28;20569;-75
2020/12/11 07:04:42;;;;;;;25.40;11.57;;;-0.20;99.90;;;;;;5052803;28;20186;-75
2020/12/11 07:07:08;;;;;;;23.33;13.95;;;-0.20;99.90;;;;;;5062083;28;20671;-75
2020/12/11 07:09:44;;;;;;;23.97;12.97;;;-0.20;99.90;;;;;;5054575;28;20269;-75
2020/12/11 07:12:11;;;;;;;16.85;10.65;;;-0.20;99.90;;;;;;5052825;28;20459;-75
2020/12/11 07:14:36;;;;;;;18.60;12.20;;;-0.20;99.90;;;;;;5052688;28;20222;-75
2020/12/11 07:17:02;;;;;;;17.07;10.50;;;-0.10;99.90;;;;;;5052294;28;20221;-75
2020/12/11 07:19:38;;;;;;;17.13;10.37;;;-0.10;99.90;;;;;;5052891;28;20175;-75
2020/12/11 07:22:04;;;;;;;22.35;12.20;;;-0.10;99.90;;;;;;5052231;28;20429;-74
2020/12/11 07:24:31;;;;;;;21.27;11.40;;;-0.10;99.90;;;;;;5052296;28;20183;-75
2020/12/11 07:27:04;;;;;;;14.95;9.35;;;-0.10;99.90;;;;;;5051637;28;20222;-75
2020/12/11 07:29:29;;;;;;;17.48;9.60;;;-0.10;99.90;;;;;;5051970;28;20193;-75
2020/12/11 07:31:56;;;;;;;19.67;10.67;;;0.00;99.90;;;;;;5052149;28;20547;-75
2020/12/11 07:34:24;;;;;;;14.85;8.23;;;0.00;99.90;;;;;;5051902;28;20194;-75
2020/12/11 07:36:54;;;;;;;17.52;10.85;;;0.00;99.90;;;;;;5051944;28;20186;-75
2020/12/11 07:39:22;;;;;;;16.90;10.40;;;0.00;99.90;;;;;;5052148;28;20236;-75
2020/12/11 07:41:48;;;;;;;20.52;11.73;;;0.10;99.90;;;;;;5052416;28;20213;-75
2020/12/11 07:44:34;;;;;;;15.25;10.63;;;0.10;99.90;;;;;;5066599;28;20184;-75
2020/12/11 07:47:05;;;;;;;14.77;9.38;;;0.10;99.90;;;;;;5055108;28;20319;-75
2020/12/11 07:49:38;;;;;;;13.77;8.85;;;0.10;99.90;;;;;;5052311;28;20645;-75
2020/12/11 07:52:04;;;;;;;14.52;8.90;;;0.10;99.90;;;;;;5047239;28;20182;-75
2020/12/11 07:54:34;;;;;;;17.65;10.52;;;0.20;99.90;;;;;;5051021;28;20221;-75
2020/12/11 07:57:17;;;;;;;18.30;10.80;;;0.20;99.90;;;;;;5052078;28;20186;-75
2020/12/11 07:59:59;;;;;;;17.98;9.90;;;0.30;99.90;;;;;;5047241;28;20178;-76
2020/12/11 08:02:25;;;;;;;20.63;14.32;;;0.40;99.90;;;;;;5051333;28;20730;-75
2020/12/11 08:04:51;;;;;;;26.67;15.13;;;0.50;99.90;;;;;;5051276;28;20225;-76
2020/12/11 08:07:30;;;;;;;23.80;13.77;;;0.60;99.90;;;;;;5051369;28;20234;-75
2020/12/11 08:10:13;;;;;;;22.30;14.55;;;0.70;99.90;;;;;;5041552;28;20432;-76
2020/12/11 08:12:40;;;;;;;19.48;11.77;;;0.80;99.90;;;;;;5051717;28;20182;-75
2020/12/11 08:15:07;;;;;;;18.27;11.18;;;0.90;99.90;;;;;;5053521;28;20189;-75
2020/12/11 08:17:33;;;;;;;18.40;11.68;;;0.90;99.90;;;;;;5060818;28;20205;-75
2020/12/11 08:20:05;;;;;;;21.25;12.30;;;1.00;99.90;;;;;;5053633;28;20202;-75
2020/12/11 08:22:33;;;;;;;29.35;16.20;;;1.00;99.90;;;;;;5055943;28;20269;-75
2020/12/11 08:25:00;;;;;;;24.23;13.95;;;1.10;99.90;;;;;;5051494;28;20194;-75
2020/12/11 08:27:28;;;;;;;25.60;14.82;;;1.20;99.90;;;;;;5051474;28;20225;-75
2020/12/11 08:30:13;;;;;;;24.90;15.23;;;1.30;99.90;;;;;;5051518;28;20268;-76
2020/12/11 08:32:39;;;;;;;23.95;13.60;;;1.50;99.90;;;;;;5051902;28;20171;-76
2020/12/11 08:35:16;;;;;;;22.27;13.05;;;1.70;99.90;;;;;;5051074;28;20171;-76
2020/12/11 08:37:58;;;;;;;17.40;12.75;;;1.90;99.90;;;;;;5055657;28;20174;-76
2020/12/11 08:40:26;;;;;;;21.27;13.50;;;2.20;99.90;;;;;;5055201;28;20182;-75
2020/12/11 08:51:24;;;;;;;19.80;12.85;;;3.60;99.90;;;;;;5035586;28;20194;-75
2020/12/11 08:53:54;;;;;;;21.20;13.10;;;4.00;99.90;;;;;;5048183;28;20250;-75
2020/12/11 08:56:19;;;;;;;20.10;13.00;;;4.30;99.90;;;;;;5053694;28;20673;-75
2020/12/11 08:58:45;;;;;;;18.20;11.80;;;4.70;99.90;;;;;;5054936;28;20277;-76
2020/12/11 09:01:10;;;;;;;17.33;11.73;;;5.00;99.90;;;;;;5054788;28;20191;-75
2020/12/11 09:03:36;;;;;;;17.97;11.40;;;5.30;99.90;;;;;;5060721;28;20608;-75
2020/12/11 09:06:01;;;;;;;21.13;14.03;;;5.70;99.90;;;;;;5072275;28;20190;-75
2020/12/11 09:08:27;;;;;;;21.23;13.70;;;6.60;99.90;;;;;;5053547;28;20228;-75
2020/12/11 09:10:52;;;;;;;17.23;12.03;;;7.40;99.90;;;;;;5054761;28;20221;-77
2020/12/11 09:13:18;;;;;;;16.30;12.50;;;8.10;99.90;;;;;;5054727;28;20204;-77
2020/12/11 09:15:43;;;;;;;16.27;11.30;;;8.60;99.90;;;;;;5054469;28;20187;-76
2020/12/11 09:18:09;;;;;;;17.93;12.90;;;9.00;98.40;;;;;;5053046;28;20297;-75
2020/12/11 09:20:34;;;;;;;15.00;12.00;;;9.80;97.10;;;;;;5053114;28;20190;-75
2020/12/11 09:23:00;;;;;;;16.07;10.90;;;10.40;95.90;;;;;;5053150;28;20634;-75
2020/12/11 09:25:25;;;;;;;14.93;11.57;;;10.70;93.30;;;;;;5054326;28;20599;-75
2020/12/11 09:27:51;;;;;;;14.53;12.27;;;11.10;93.30;;;;;;5054252;28;20276;-75
2020/12/11 09:30:27;;;;;;;16.30;12.53;;;11.10;91.10;;;;;;5054443;28;20669;-75
2020/12/11 09:33:15;;;;;;;14.27;11.68;;;10.70;88.40;;;;;;5053192;28;20190;-75
2020/12/11 09:35:40;;;;;;;16.15;12.70;;;10.00;80.90;;;;;;5053537;28;20292;-75
2020/12/11 09:38:06;;;;;;;17.90;13.20;;;9.20;80.80;;;;;;5053998;28;20275;-75
2020/12/11 09:40:47;;;;;;;17.20;12.07;;;8.70;82.70;;;;;;5054297;28;20182;-75
2020/12/11 09:43:44;;;;;;;15.55;11.88;;;8.20;85.90;;;;;;5054493;28;20323;-75
2020/12/11 09:49:13;;;;;;;14.65;11.40;;;7.30;87.20;;;;;;5044891;28;20564;-75
2020/12/11 09:54:26;;;;;;;17.88;11.95;;;6.70;88.60;;;;;;5054312;28;20183;-75
2020/12/11 09:56:51;;;;;;;15.65;11.52;;;6.50;88.70;;;;;;5054251;28;20174;-75
2020/12/11 09:59:21;;;;;;;18.70;12.57;;;6.30;91.00;;;;;;5053414;28;20182;-75
2020/12/11 10:01:59;;;;;;;18.77;12.52;;;6.30;92.10;;;;;;5054281;28;20551;-75
2020/12/11 10:04:25;;;;;;;17.67;10.68;;;6.40;92.80;;;;;;5053560;28;20540;-75
2020/12/11 10:06:50;;;;;;;17.83;12.97;;;6.30;91.20;;;;;;5053985;28;20186;-75
2020/12/11 10:09:16;;;;;;;18.87;13.40;;;6.40;93.50;;;;;;5053609;28;20731;-75
2020/12/11 10:11:41;;;;;;;21.00;13.33;;;6.50;93.90;;;;;;5054082;28;20587;-75
2020/12/11 10:14:23;;;;;;;16.13;12.13;;;6.60;94.40;;;;;;5053829;28;20206;-75
2020/12/11 10:16:53;;;;;;;16.48;10.95;;;6.70;93.90;;;;;;5053950;28;20193;-76
2020/12/11 10:19:20;;;;;;;15.23;11.55;;;6.80;94.50;;;;;;5053467;28;20531;-75
2020/12/11 10:21:50;;;;;;;20.02;13.57;;;7.00;94.30;;;;;;5053779;28;20269;-76
2020/12/11 10:24:16;;;;;;;19.02;12.45;;;7.20;95.00;;;;;;5052592;28;20194;-75
2020/12/11 10:26:42;;;;;;;15.70;11.30;;;7.30;94.20;;;;;;5052428;28;20199;-76
2020/12/11 10:29:09;;;;;;;18.33;12.50;;;7.30;94.80;;;;;;5053418;28;20210;-75
2020/12/11 10:31:34;;;;;;;16.25;10.90;;;7.30;93.30;;;;;;5053104;28;20178;-76
2020/12/11 10:34:00;;;;;;;20.93;12.67;;;7.20;92.70;;;;;;5052767;28;20183;-75
2020/12/11 10:36:30;;;;;;;17.70;12.33;;;7.00;92.00;;;;;;5053418;28;20190;-75
2020/12/11 10:38:56;;;;;;;16.27;11.85;;;6.90;92.90;;;;;;5053244;28;20432;-76
2020/12/11 10:41:22;;;;;;;15.50;11.30;;;6.80;93.90;;;;;;5052370;28;20651;-75
2020/12/11 10:43:48;;;;;;;18.95;12.98;;;6.80;94.70;;;;;;5053147;28;20424;-75
2020/12/11 10:46:14;;;;;;;16.45;11.25;;;6.90;95.50;;;;;;5052934;28;20194;-76
2020/12/11 10:48:40;;;;;;;16.63;10.60;;;6.90;96.40;;;;;;5052837;28;20242;-76
2020/12/11 10:51:08;;;;;;;26.90;17.83;;;6.90;95.20;;;;;;5052598;28;20958;-76
2020/12/11 10:53:33;;;;;;;18.23;12.75;;;6.90;95.20;;;;;;5052513;28;20182;-75
2020/12/11 10:55:59;;;;;;;18.80;11.97;;;7.00;95.90;;;;;;5052905;28;20658;-75
2020/12/11 10:58:24;;;;;;;18.53;12.50;;;7.30;94.60;;;;;;5052459;28;20210;-76
2020/12/11 11:00:50;;;;;;;17.47;11.90;;;7.50;95.30;;;;;;5052453;28;20194;-76
2020/12/11 11:03:18;;;;;;;18.37;12.40;;;7.90;95.50;;;;;;5051582;28;20200;-76
2020/12/11 11:05:44;;;;;;;16.92;12.20;;;8.90;98.20;;;;;;5034901;28;20222;-76
2020/12/11 11:08:09;;;;;;;15.65;11.57;;;9.30;95.10;;;;;;5052539;28;20214;-76
2020/12/11 11:10:44;;;;;;;12.87;10.67;;;9.30;93.10;;;;;;5052787;28;20192;-76
2020/12/11 11:13:26;;;;;;;15.43;11.63;;;8.90;89.50;;;;;;5052140;28;20182;-75
2020/12/11 11:15:54;;;;;;;15.05;10.13;;;8.70;90.80;;;;;;5052633;28;20308;-76
2020/12/11 11:18:36;;;;;;;14.10;9.88;;;8.30;87.20;;;;;;5052486;28;20182;-75
2020/12/11 11:21:17;;;;;;;16.35;10.35;;;8.20;87.00;;;;;;5047026;28;20210;-75
2020/12/11 11:24:11;;;;;;;13.73;10.20;;;8.00;90.30;;;;;;5052003;28;20661;-75
2020/12/11 11:29:25;;;;;;;13.52;11.43;;;7.90;91.40;;;;;;5051347;28;20194;-76
2020/12/11 11:31:51;;;;;;;12.63;9.83;;;8.00;91.90;;;;;;5051693;28;20183;-75
2020/12/11 11:34:16;;;;;;;14.33;11.30;;;8.00;91.70;;;;;;5051127;28;20213;-75
2020/12/11 11:36:47;;;;;;;17.23;11.30;;;8.00;91.80;;;;;;5052494;28;20236;-75
2020/12/11 11:39:12;;;;;;;17.25;10.60;;;8.00;92.30;;;;;;5052016;28;20244;-75
2020/12/11 11:41:47;;;;;;;14.20;11.00;;;8.10;92.60;;;;;;5053049;28;20178;-76
2020/12/11 11:46:47;;;;;;;17.58;11.75;;;8.20;91.40;;;;;;5052016;28;20579;-75
2020/12/11 11:49:16;;;;;;;14.98;10.93;;;8.40;91.90;;;;;;5051905;28;20194;-75
2020/12/11 11:51:59;;;;;;;17.42;12.52;;;8.70;91.40;;;;;;5051993;28;20214;-75
2020/12/11 11:54:24;;;;;;;23.13;14.05;;;8.90;90.30;;;;;;5056581;28;20245;-76
2020/12/11 11:56:50;;;;;;;16.53;12.70;;;9.10;91.40;;;;;;5051788;28;20262;-75
2020/12/11 11:59:15;;;;;;;20.40;15.17;;;9.40;91.10;;;;;;5051705;28;20270;-75
2020/12/11 12:01:41;;;;;;;17.83;13.10;;;10.10;87.40;;;;;;5052153;28;20532;-76
2020/12/11 12:04:06;;;;;;;15.27;12.00;;;10.70;91.50;;;;;;5051922;28;20198;-76
2020/12/11 12:06:32;;;;;;;15.10;11.97;;;10.70;89.90;;;;;;5051436;28;20213;-75
2020/12/11 12:08:57;;;;;;;15.60;11.53;;;10.50;89.00;;;;;;5050187;28;20233;-76
2020/12/11 12:11:23;;;;;;;12.50;10.47;;;10.10;86.30;;;;;;5051628;28;20182;-76
2020/12/11 12:13:48;;;;;;;13.57;11.43;;;9.90;86.00;;;;;;5055891;28;20658;-75
2020/12/11 12:16:16;;;;;;;13.50;11.00;;;9.60;87.40;;;;;;5056083;28;20187;-75
2020/12/11 12:18:44;;;;;;;14.20;11.10;;;9.40;88.20;;;;;;5055263;28;20652;-75
2020/12/11 12:21:23;;;;;;;12.85;10.25;;;9.10;87.20;;;;;;5054977;28;20270;-75
2020/12/11 12:29:30;;;;;;;13.98;10.55;;;8.50;86.20;;;;;;5034975;28;20261;-75
2020/12/11 12:32:00;;;;;;;15.47;10.83;;;8.20;80.30;;;;;;5044044;28;20191;-77
2020/12/11 12:37:32;;;;;;;14.65;10.88;;;8.20;89.00;;;;;;5053846;28;20253;-75
2020/12/11 12:40:23;;;;;;;17.45;11.93;;;8.50;88.60;;;;;;5055932;28;20174;-75
2020/12/11 12:45:27;;;;;;;15.85;11.05;;;8.40;90.30;;;;;;5055835;28;20183;-74
2020/12/11 12:47:52;;;;;;;15.57;10.55;;;8.20;90.50;;;;;;5055370;28;20230;-75
2020/12/11 12:50:18;;;;;;;13.27;9.87;;;8.00;91.00;;;;;;5055315;28;20244;-76
2020/12/11 12:52:43;;;;;;;13.70;9.87;;;7.90;90.20;;;;;;5055192;28;20232;-75
2020/12/11 12:55:10;;;;;;;14.30;10.30;;;7.70;89.70;;;;;;5055400;28;20661;-74
2020/12/11 12:57:42;;;;;;;14.90;10.73;;;7.50;90.70;;;;;;5055340;28;20181;-75
2020/12/11 13:00:24;;;;;;;14.50;10.65;;;7.20;91.50;;;;;;5055488;28;20526;-75
2020/12/11 13:05:21;;;;;;;16.02;10.90;;;6.70;90.90;;;;;;5054033;28;20564;-75
2020/12/11 13:07:47;;;;;;;14.93;10.77;;;6.40;91.20;;;;;;5054515;28;20213;-75
2020/12/11 13:10:13;;;;;;;13.27;10.93;;;6.20;91.90;;;;;;5055210;28;20274;-75
2020/12/11 13:12:41;;;;;;;13.80;10.73;;;6.00;92.60;;;;;;5054810;28;20202;-74
2020/12/11 13:15:06;;;;;;;15.02;10.93;;;5.90;93.50;;;;;;5053670;28;20187;-75